createdAt,value
2023-01-21T00:00:59.946Z,101.83
2023-01-21T00:03:26.848Z,102.20
2023-01-21T00:05:53.724Z,103.97
2023-01-21T00:08:20.599Z,94.67
2023-01-21T00:10:47.481Z,100.83
2023-01-21T00:13:14.366Z,101.90
2023-01-21T00:15:41.240Z,102.10
2023-01-21T00:18:08.161Z,111.17
2023-01-21T00:20:35.320Z,104.10
2023-01-21T00:23:02.736Z,95.97
2023-01-21T00:25:29.532Z,104.27
2023-01-21T00:27:56.430Z,105.20
2023-01-21T00:30:23.322Z,100.27
2023-01-21T00:32:50.113Z,103.43
2023-01-21T00:35:16.983Z,98.60
2023-01-21T00:37:43.808Z,98.27
2023-01-21T00:40:11.290Z,94.93
2023-01-21T00:42:38.094Z,91.23
2023-01-21T00:45:05.468Z,90.40
2023-01-21T00:47:32.289Z,96.73
2023-01-21T00:49:59.118Z,98.87
2023-01-21T00:52:26.083Z,96.23
2023-01-21T00:54:52.913Z,87.60
2023-01-21T00:57:19.804Z,101.20
2023-01-21T00:59:46.969Z,90.93
2023-01-21T01:02:13.861Z,85.70
2023-01-21T01:04:40.866Z,90.53
2023-01-21T01:07:07.800Z,91.73
2023-01-21T01:09:34.639Z,92.93
2023-01-21T01:12:01.744Z,90.13
2023-01-21T01:14:28.589Z,90.27
2023-01-21T01:16:55.405Z,89.13
2023-01-21T01:19:22.241Z,87.03
2023-01-21T01:21:49.031Z,83.47
2023-01-21T01:24:15.856Z,87.60
2023-01-21T01:26:42.682Z,82.37
2023-01-21T01:29:13.642Z,81.83
2023-01-21T01:31:40.750Z,85.07
2023-01-21T01:34:07.605Z,79.53
2023-01-21T01:36:34.485Z,78.80
2023-01-21T01:39:01.574Z,81.10
2023-01-21T01:41:30.204Z,85.43
2023-01-21T01:44:02.704Z,79.13
2023-01-21T01:46:35.462Z,80.47
2023-01-21T01:49:16.828Z,81.27
2023-01-21T01:51:48.995Z,90.70
2023-01-21T01:54:20.313Z,84.07
2023-01-21T01:56:50.716Z,84.77
2023-01-21T01:59:18.654Z,82.17
2023-01-21T02:01:46.251Z,85.67
2023-01-21T02:04:20.004Z,80.37
2023-01-21T02:06:48.306Z,87.90
2023-01-21T02:09:15.117Z,81.93
2023-01-21T02:11:42.057Z,86.97
2023-01-21T02:14:09.136Z,85.00
2023-01-21T02:16:54.740Z,90.67
2023-01-21T02:19:42.404Z,92.27
2023-01-21T02:22:26.478Z,83.63
2023-01-21T02:25:14.922Z,84.27
2023-01-21T02:28:05.121Z,83.40
2023-01-21T02:31:02.791Z,78.13
2023-01-21T02:33:42.890Z,87.03
2023-01-21T02:36:30.667Z,87.07
2023-01-21T02:39:06.585Z,77.90
2023-01-21T02:41:46.332Z,73.20
2023-01-21T02:44:33.857Z,79.10
2023-01-21T02:47:07.192Z,74.90
2023-01-21T02:49:42.309Z,78.50
2023-01-21T02:52:16.621Z,75.33
2023-01-21T02:54:43.364Z,75.00
2023-01-21T02:57:18.975Z,75.33
2023-01-21T02:59:49.286Z,71.70
2023-01-21T03:02:46.623Z,69.13
2023-01-21T03:05:26.214Z,60.73
2023-01-21T03:08:07.871Z,69.93
2023-01-21T03:10:55.643Z,63.87
2023-01-21T03:13:46.146Z,68.97
2023-01-21T03:16:35.762Z,58.37
2023-01-21T03:19:06.863Z,62.53
2023-01-21T03:21:35.523Z,60.30
2023-01-21T03:24:03.070Z,61.00
2023-01-21T03:26:39.119Z,58.83
2023-01-21T03:29:16.137Z,59.67
2023-01-21T03:31:46.595Z,56.50
2023-01-21T03:34:16.461Z,53.53
2023-01-21T03:36:59.912Z,52.77
2023-01-21T03:39:58.583Z,58.23
2023-01-21T03:42:25.788Z,53.60
2023-01-21T03:44:52.908Z,56.57
2023-01-21T03:47:33.528Z,56.13
2023-01-21T03:50:24.337Z,57.50
2023-01-21T03:52:51.378Z,57.53
2023-01-21T03:55:18.704Z,56.60
2023-01-21T03:57:45.553Z,53.90
2023-01-21T04:00:13.514Z,66.03
2023-01-21T04:02:40.398Z,51.77
2023-01-21T04:05:07.622Z,60.37
2023-01-21T04:07:34.468Z,51.57
2023-01-21T04:10:01.417Z,55.47
2023-01-21T04:12:28.226Z,60.57
2023-01-21T04:14:55.051Z,55.30
2023-01-21T04:17:21.879Z,58.20
2023-01-21T04:19:48.684Z,62.60
2023-01-21T04:22:15.507Z,56.67
2023-01-21T04:24:42.337Z,55.93
2023-01-21T04:27:09.152Z,57.37
2023-01-21T04:29:35.976Z,57.70
2023-01-21T04:32:02.893Z,55.27
2023-01-21T04:34:29.809Z,57.63
2023-01-21T04:36:56.633Z,55.97
2023-01-21T04:39:23.526Z,60.57
2023-01-21T04:41:50.398Z,51.90
2023-01-21T04:44:17.214Z,55.93
2023-01-21T04:46:44.002Z,61.27
2023-01-21T04:49:10.880Z,50.57
2023-01-21T04:51:37.676Z,56.30
2023-01-21T04:54:04.594Z,61.80
2023-01-21T04:56:31.409Z,58.90
2023-01-21T04:58:58.225Z,52.93
2023-01-21T05:01:25.107Z,60.93
2023-01-21T05:03:52.309Z,62.57
2023-01-21T05:06:19.137Z,62.97
2023-01-21T05:08:45.944Z,54.77
2023-01-21T05:11:16.215Z,58.60
2023-01-21T05:13:43.027Z,56.07
2023-01-21T05:16:10.933Z,55.30
2023-01-21T05:18:38.684Z,64.53
2023-01-21T05:21:06.373Z,60.97
2023-01-21T05:23:33.484Z,58.30
2023-01-21T05:26:00.330Z,63.13
2023-01-21T05:28:27.149Z,63.20
2023-01-21T05:30:54.074Z,61.63
2023-01-21T05:33:26.263Z,52.87
2023-01-21T05:35:53.221Z,56.90
2023-01-21T05:38:20.053Z,52.20
2023-01-21T05:40:46.918Z,52.80
2023-01-21T05:43:13.754Z,52.97
2023-01-21T05:45:40.561Z,58.77
2023-01-21T05:48:07.392Z,58.17
2023-01-21T05:50:34.161Z,56.87
2023-01-21T05:53:01.013Z,58.90
2023-01-21T05:55:27.891Z,57.90
2023-01-21T05:57:54.862Z,56.33
2023-01-21T06:00:22.087Z,57.77
2023-01-21T06:02:48.936Z,56.23
2023-01-21T06:05:15.907Z,51.70
2023-01-21T06:07:42.798Z,54.30
2023-01-21T06:10:10.284Z,49.47
2023-01-21T06:12:37.084Z,55.93
2023-01-21T06:15:04.166Z,50.10
2023-01-21T06:17:31.010Z,54.37
2023-01-21T06:19:57.847Z,49.50
2023-01-21T06:22:24.673Z,53.73
2023-01-21T06:24:51.531Z,53.33
2023-01-21T06:27:18.357Z,53.87
2023-01-21T06:29:45.215Z,48.83
2023-01-21T06:32:12.238Z,51.33
2023-01-21T06:34:39.132Z,48.83
2023-01-21T06:37:06.006Z,46.97
2023-01-21T06:39:33.119Z,54.17
2023-01-21T06:42:00.050Z,50.03
2023-01-21T06:44:26.994Z,44.10
2023-01-21T06:47:00.622Z,45.17
2023-01-21T06:49:28.157Z,47.83
2023-01-21T06:51:56.422Z,46.13
2023-01-21T06:54:23.349Z,44.40
2023-01-21T06:56:50.163Z,45.33
2023-01-21T06:59:17.047Z,43.17
2023-01-21T07:01:43.962Z,41.53
2023-01-21T07:04:11.023Z,46.97
2023-01-21T07:06:38.419Z,48.30
2023-01-21T07:09:06.094Z,42.67
2023-01-21T07:11:33.887Z,42.87
2023-01-21T07:14:00.900Z,41.37
2023-01-21T07:16:27.804Z,39.23
2023-01-21T07:18:54.643Z,41.47
2023-01-21T07:21:21.483Z,39.00
2023-01-21T07:23:48.438Z,39.83
2023-01-21T07:26:15.367Z,39.77
2023-01-21T07:28:42.184Z,40.60
2023-01-21T07:31:09.696Z,38.33
2023-01-21T07:33:36.559Z,37.50
2023-01-21T07:36:03.527Z,39.57
2023-01-21T07:38:30.480Z,33.43
2023-01-21T07:40:57.439Z,36.07
2023-01-21T07:43:24.338Z,37.60
2023-01-21T07:45:51.341Z,39.70
2023-01-21T07:48:18.307Z,36.30
2023-01-21T07:50:45.148Z,35.30
2023-01-21T07:53:12.805Z,32.20
2023-01-21T07:55:40.883Z,33.63
2023-01-21T07:58:07.831Z,35.77
2023-01-21T08:00:34.697Z,31.30
2023-01-21T08:03:01.497Z,32.13
2023-01-21T08:05:28.369Z,33.13
2023-01-21T08:07:58.347Z,34.63
2023-01-21T08:10:25.659Z,32.83
2023-01-21T08:12:52.663Z,31.63
2023-01-21T08:15:19.805Z,39.70
2023-01-21T08:17:47.607Z,33.53
2023-01-21T08:20:14.833Z,32.87
2023-01-21T08:22:41.674Z,32.50
2023-01-21T08:25:09.242Z,30.03
2023-01-21T08:27:36.159Z,31.50
2023-01-21T08:30:03.730Z,28.63
2023-01-21T08:32:31.909Z,27.47
2023-01-21T08:34:58.991Z,31.97
2023-01-21T08:37:26.025Z,29.87
2023-01-21T08:39:52.904Z,29.07
2023-01-21T08:42:19.865Z,27.70
2023-01-21T08:44:46.975Z,31.93
2023-01-21T08:47:13.877Z,30.07
2023-01-21T08:49:40.809Z,27.87
2023-01-21T08:52:07.931Z,28.53
2023-01-21T08:54:34.776Z,28.50
2023-01-21T08:57:01.656Z,26.87
2023-01-21T08:59:30.157Z,24.97
2023-01-21T09:01:57.339Z,27.90
2023-01-21T09:04:24.289Z,24.00
2023-01-21T09:06:51.130Z,24.87
2023-01-21T09:09:17.965Z,25.00
2023-01-21T09:11:45.258Z,23.63
2023-01-21T09:14:12.258Z,24.40
2023-01-21T09:16:39.283Z,23.00
2023-01-21T09:19:06.304Z,23.27
2023-01-21T09:21:37.943Z,24.00
2023-01-21T09:24:05.265Z,21.67
2023-01-21T09:26:32.203Z,26.80
2023-01-21T09:29:01.615Z,23.57
2023-01-21T09:31:30.403Z,21.73
2023-01-21T09:34:00.332Z,21.13
2023-01-21T09:36:29.924Z,20.30
2023-01-21T09:38:57.255Z,19.70
2023-01-21T09:41:37.661Z,18.73
2023-01-21T09:44:13.398Z,19.70
2023-01-21T09:46:55.382Z,18.93
2023-01-21T09:49:28.186Z,21.57
2023-01-21T09:52:21.109Z,20.40
2023-01-21T09:54:48.174Z,20.17
2023-01-21T09:57:37.906Z,19.20
2023-01-21T10:00:19.471Z,21.43
2023-01-21T10:02:54.743Z,18.30
2023-01-21T10:05:24.402Z,16.40
2023-01-21T10:08:06.347Z,18.07
2023-01-21T10:11:05.776Z,16.77
2023-01-21T10:13:52.693Z,18.80
2023-01-21T10:16:38.320Z,18.47
2023-01-21T10:19:06.420Z,18.80
2023-01-21T10:21:49.143Z,14.67
2023-01-21T10:24:20.425Z,16.20
2023-01-21T10:26:49.874Z,16.50
2023-01-21T10:29:19.494Z,16.47
2023-01-21T10:32:00.177Z,15.47
2023-01-21T10:34:31.523Z,15.47
2023-01-21T10:37:03.859Z,17.87
2023-01-21T10:39:34.124Z,15.30
2023-01-21T10:42:33.493Z,12.73
2023-01-21T10:45:39.186Z,12.40
2023-01-21T10:48:29.003Z,11.50
2023-01-21T10:51:28.359Z,13.10
2023-01-21T10:54:15.749Z,13.30
2023-01-21T10:56:51.987Z,13.30
2023-01-21T10:59:27.644Z,12.47
2023-01-21T11:02:25.050Z,13.63
2023-01-21T11:04:52.442Z,14.07
2023-01-21T11:07:21.543Z,12.07
2023-01-21T11:09:49.171Z,12.30
2023-01-21T11:12:20.303Z,12.77
2023-01-21T11:14:58.313Z,11.13
2023-01-21T11:17:37.038Z,11.83
2023-01-21T11:20:16.300Z,11.93
2023-01-21T11:22:45.681Z,11.43
2023-01-21T11:25:31.178Z,12.57
2023-01-21T11:27:58.044Z,12.63
2023-01-21T11:30:48.701Z,9.33
2023-01-21T11:33:19.697Z,11.33
2023-01-21T11:35:46.677Z,14.53
2023-01-21T11:38:35.152Z,10.00
2023-01-21T11:41:11.921Z,12.57
2023-01-21T11:43:47.771Z,10.73
2023-01-21T11:46:29.958Z,9.40
2023-01-21T11:49:17.999Z,11.40
2023-01-21T11:51:47.662Z,11.23
2023-01-21T11:54:25.777Z,8.83
2023-01-21T11:57:03.571Z,10.03
2023-01-21T11:59:38.997Z,9.53
2023-01-21T12:02:25.608Z,9.83
2023-01-21T12:05:09.201Z,9.40
2023-01-21T12:07:42.371Z,10.27
2023-01-21T12:10:12.053Z,9.13
2023-01-21T12:13:04.400Z,9.37
2023-01-21T12:15:57.712Z,7.40
2023-01-21T12:18:53.942Z,11.43
2023-01-21T12:21:45.661Z,9.93
2023-01-21T12:24:38.446Z,11.87
2023-01-21T12:27:14.371Z,6.80
2023-01-21T12:29:56.190Z,8.50
2023-01-21T12:32:26.808Z,9.10
2023-01-21T12:35:10.878Z,7.03
2023-01-21T12:37:53.721Z,6.60
2023-01-21T12:40:30.739Z,8.17
2023-01-21T12:43:03.606Z,7.67
2023-01-21T12:45:55.381Z,6.97
2023-01-21T12:48:32.133Z,8.43
2023-01-21T12:51:07.198Z,7.67
2023-01-21T12:54:09.715Z,6.60
2023-01-21T12:56:57.209Z,8.30
2023-01-21T12:59:32.465Z,9.77
2023-01-21T13:02:05.848Z,8.57
2023-01-21T13:04:54.433Z,7.80
2023-01-21T13:07:38.246Z,9.10
2023-01-21T13:10:24.776Z,10.00
2023-01-21T13:13:27.165Z,9.80
2023-01-21T13:15:58.842Z,7.87
2023-01-21T13:18:41.754Z,8.97
2023-01-21T13:21:19.368Z,9.33
2023-01-21T13:23:55.874Z,9.50
2023-01-21T13:26:44.745Z,11.53
2023-01-21T13:29:17.728Z,10.87
2023-01-21T13:32:08.614Z,9.53
2023-01-21T13:34:50.826Z,13.00
2023-01-21T13:37:29.661Z,11.87
2023-01-21T13:40:22.578Z,10.13
2023-01-21T13:43:06.796Z,11.33
2023-01-21T13:46:02.327Z,14.03
2023-01-21T13:48:52.350Z,12.87
2023-01-21T13:51:43.139Z,14.00
2023-01-21T13:54:44.654Z,12.03
2023-01-21T13:57:21.287Z,13.03
2023-01-21T13:59:59.500Z,13.63
2023-01-21T14:02:40.074Z,16.20
2023-01-21T14:05:11.514Z,13.67
2023-01-21T14:07:48.113Z,14.20
2023-01-21T14:10:36.456Z,11.53
2023-01-21T14:13:03.215Z,13.53
2023-01-21T14:15:30.033Z,14.17
2023-01-21T14:18:24.882Z,13.70
2023-01-21T14:21:12.285Z,17.73
2023-01-21T14:23:51.465Z,12.47
2023-01-21T14:26:33.605Z,14.63
2023-01-21T14:29:20.911Z,14.40
2023-01-21T14:31:53.124Z,15.50
2023-01-21T14:34:30.313Z,13.07
2023-01-21T14:37:09.974Z,14.90
2023-01-21T14:40:09.688Z,16.50
2023-01-21T14:42:53.292Z,15.77
2023-01-21T14:45:26.000Z,15.33
2023-01-21T14:47:55.169Z,14.80
2023-01-21T14:50:53.966Z,14.70
2023-01-21T14:53:26.217Z,15.90
2023-01-21T14:56:27.200Z,16.20
2023-01-21T14:59:38.005Z,19.00
2023-01-21T15:02:31.316Z,16.60
2023-01-21T15:05:14.427Z,16.77
2023-01-21T15:07:45.790Z,14.20
2023-01-21T15:10:26.533Z,16.80
2023-01-21T15:12:56.869Z,16.70
2023-01-21T15:15:34.554Z,15.67
2023-01-21T15:18:09.038Z,16.97
2023-01-21T15:20:52.539Z,18.63
2023-01-21T15:23:31.645Z,18.27
2023-01-21T15:26:07.722Z,16.27
2023-01-21T15:28:52.196Z,16.17
2023-01-21T15:31:21.894Z,16.47
2023-01-21T15:33:50.527Z,19.10
2023-01-21T15:36:31.116Z,18.97
2023-01-21T15:39:19.115Z,15.93
2023-01-21T15:42:22.472Z,14.47
2023-01-21T15:45:16.555Z,16.10
2023-01-21T15:47:49.783Z,15.87
2023-01-21T15:50:48.505Z,16.40
2023-01-21T15:53:46.085Z,16.87
2023-01-21T15:56:49.203Z,18.70
2023-01-21T15:59:42.118Z,17.80
2023-01-21T16:02:20.929Z,17.77
2023-01-21T16:05:15.848Z,19.23
2023-01-21T16:08:15.924Z,18.27
2023-01-21T16:11:01.622Z,20.37
2023-01-21T16:13:37.637Z,19.93
2023-01-21T16:16:48.388Z,20.23
2023-01-21T16:19:21.835Z,18.03
2023-01-21T16:21:55.334Z,18.03
2023-01-21T16:24:26.166Z,17.77
2023-01-21T16:26:53.020Z,21.13
2023-01-21T16:29:19.831Z,21.57
2023-01-21T16:31:51.790Z,23.47
2023-01-21T16:34:42.955Z,23.30
2023-01-21T16:37:15.001Z,23.23
2023-01-21T16:39:42.869Z,25.53
2023-01-21T16:42:29.044Z,28.70
2023-01-21T16:44:56.149Z,22.90
2023-01-21T16:47:44.885Z,26.27
2023-01-21T16:50:24.770Z,26.37
2023-01-21T16:52:53.480Z,25.17
2023-01-21T16:55:29.293Z,25.80
2023-01-21T16:57:58.187Z,29.67
2023-01-21T17:00:29.542Z,21.03
2023-01-21T17:02:57.899Z,26.30
2023-01-21T17:05:34.538Z,29.77
2023-01-21T17:08:08.834Z,25.17
2023-01-21T17:10:39.554Z,29.90
2023-01-21T17:13:13.899Z,26.40
2023-01-21T17:16:03.048Z,23.97
2023-01-21T17:18:53.611Z,27.60
2023-01-21T17:21:31.315Z,33.87
2023-01-21T17:24:04.851Z,27.20
2023-01-21T17:26:43.974Z,30.27
2023-01-21T17:29:16.348Z,31.03
2023-01-21T17:31:43.650Z,31.73
2023-01-21T17:34:16.531Z,36.03
2023-01-21T17:36:45.653Z,30.43
2023-01-21T17:39:12.988Z,32.50
2023-01-21T17:41:41.511Z,31.23
2023-01-21T17:44:19.551Z,31.87
2023-01-21T17:46:48.781Z,33.43
2023-01-21T17:49:19.850Z,35.43
2023-01-21T17:51:47.349Z,34.27
2023-01-21T17:54:22.987Z,33.10
2023-01-21T17:56:53.944Z,31.63
2023-01-21T17:59:38.372Z,29.60
2023-01-21T18:02:11.515Z,31.90
2023-01-21T18:04:39.112Z,32.57
2023-01-21T18:07:23.829Z,30.77
2023-01-21T18:09:52.314Z,35.87
2023-01-21T18:12:21.990Z,27.80
2023-01-21T18:14:48.958Z,34.47
2023-01-21T18:17:19.040Z,31.97
2023-01-21T18:19:46.294Z,30.03
2023-01-21T18:22:28.435Z,35.87
2023-01-21T18:24:55.410Z,33.87
2023-01-21T18:27:26.108Z,33.57
2023-01-21T18:29:53.593Z,34.73
2023-01-21T18:32:20.484Z,43.33
2023-01-21T18:34:47.381Z,39.77
2023-01-21T18:37:19.500Z,38.40
2023-01-21T18:39:47.728Z,47.50
2023-01-21T18:42:16.497Z,50.50
2023-01-21T18:44:44.109Z,52.13
2023-01-21T18:47:13.359Z,47.63
2023-01-21T18:49:40.291Z,46.73
2023-01-21T18:52:09.916Z,40.97
2023-01-21T18:54:36.906Z,43.13
2023-01-21T18:57:03.930Z,46.37
2023-01-21T18:59:30.972Z,46.07
2023-01-21T19:01:57.961Z,50.03
2023-01-21T19:04:24.863Z,46.10
2023-01-21T19:06:55.092Z,48.50
2023-01-21T19:09:26.160Z,49.03
2023-01-21T19:11:53.026Z,47.97
2023-01-21T19:14:19.922Z,56.13
2023-01-21T19:16:47.033Z,50.53
2023-01-21T19:19:21.527Z,53.57
2023-01-21T19:21:48.372Z,51.60
2023-01-21T19:24:15.219Z,60.20
2023-01-21T19:26:42.452Z,58.07
2023-01-21T19:29:15.251Z,51.40
2023-01-21T19:31:42.559Z,52.20
2023-01-21T19:34:10.686Z,63.03
2023-01-21T19:36:39.446Z,66.30
2023-01-21T19:39:17.984Z,66.37
2023-01-21T19:41:44.950Z,72.77
2023-01-21T19:44:11.814Z,72.63
2023-01-21T19:46:39.393Z,82.27
2023-01-21T19:49:15.497Z,80.83
2023-01-21T19:51:43.082Z,66.77
2023-01-21T19:54:10.462Z,67.20
2023-01-21T19:56:37.354Z,71.00
2023-01-21T19:59:04.776Z,70.17
2023-01-21T20:01:31.782Z,74.73
2023-01-21T20:04:00.974Z,86.70
2023-01-21T20:06:34.576Z,103.20
2023-01-21T20:09:01.757Z,88.30
2023-01-21T20:11:28.881Z,74.43
2023-01-21T20:13:56.105Z,91.50
2023-01-21T20:16:23.985Z,79.13
2023-01-21T20:18:51.239Z,80.20
2023-01-21T20:21:18.166Z,73.20
2023-01-21T20:23:45.359Z,90.80
2023-01-21T20:26:18.151Z,71.90
2023-01-21T20:28:47.908Z,89.23
2023-01-21T20:31:14.854Z,74.67
2023-01-21T20:33:43.926Z,77.17
2023-01-21T20:36:21.102Z,74.30
2023-01-21T20:38:48.461Z,69.70
2023-01-21T20:41:15.583Z,90.80
2023-01-21T20:43:42.855Z,66.33
2023-01-21T20:46:29.889Z,94.83
2023-01-21T20:48:58.041Z,75.90
2023-01-21T20:51:25.565Z,70.97
2023-01-21T20:53:52.465Z,67.13
2023-01-21T20:56:28.841Z,69.23
2023-01-21T20:58:56.325Z,64.27
2023-01-21T21:01:25.799Z,72.07
2023-01-21T21:03:53.348Z,75.97
2023-01-21T21:06:22.909Z,72.70
2023-01-21T21:08:50.394Z,86.77
2023-01-21T21:11:18.769Z,75.40
2023-01-21T21:13:48.563Z,68.00
2023-01-21T21:16:23.092Z,75.03
2023-01-21T21:18:50.669Z,71.70
2023-01-21T21:21:18.761Z,73.90
2023-01-21T21:23:46.690Z,73.60
2023-01-21T21:26:22.219Z,75.93
2023-01-21T21:28:50.447Z,67.00
2023-01-21T21:31:18.276Z,64.70
2023-01-21T21:33:45.493Z,75.20
2023-01-21T21:36:17.757Z,65.97
2023-01-21T21:38:45.485Z,75.33
2023-01-21T21:41:39.442Z,91.53
2023-01-21T21:44:07.711Z,92.83
2023-01-21T21:46:53.345Z,67.83
2023-01-21T21:49:20.321Z,74.70
2023-01-21T21:51:47.241Z,72.13
2023-01-21T21:54:16.587Z,77.23
2023-01-21T21:56:45.243Z,75.97
2023-01-21T21:59:12.655Z,87.13
2023-01-21T22:01:42.160Z,87.77
2023-01-21T22:04:09.379Z,89.97
2023-01-21T22:06:36.332Z,76.10
2023-01-21T22:09:03.350Z,105.17
2023-01-21T22:11:30.439Z,68.70
2023-01-21T22:13:58.052Z,84.33
2023-01-21T22:16:27.791Z,92.77
2023-01-21T22:18:56.397Z,90.97
2023-01-21T22:21:25.856Z,81.07
2023-01-21T22:23:53.251Z,88.50
2023-01-21T22:26:22.623Z,99.23
2023-01-21T22:28:51.340Z,83.07
2023-01-21T22:31:21.499Z,87.43
2023-01-21T22:33:48.744Z,86.63
2023-01-21T22:36:18.124Z,106.17
2023-01-21T22:38:45.681Z,170.57
2023-01-21T22:41:15.068Z,155.97
2023-01-21T22:43:44.907Z,132.60
2023-01-21T22:46:13.961Z,160.50
2023-01-21T22:48:42.244Z,175.70
2023-01-21T22:51:12.947Z,170.97
2023-01-21T22:53:50.041Z,156.17
2023-01-21T22:56:19.335Z,139.30
2023-01-21T22:58:46.922Z,151.73
2023-01-21T23:01:31.346Z,107.37
2023-01-21T23:04:00.150Z,121.60
2023-01-21T23:06:27.228Z,108.50
2023-01-21T23:08:54.841Z,115.37
2023-01-21T23:11:21.751Z,118.43
2023-01-21T23:13:53.520Z,135.20
2023-01-21T23:16:21.345Z,113.63
2023-01-21T23:18:48.791Z,121.40
2023-01-21T23:21:19.004Z,112.00
2023-01-21T23:23:45.850Z,144.83
2023-01-21T23:26:14.049Z,146.70
2023-01-21T23:28:41.154Z,111.03
2023-01-21T23:31:14.505Z,220.13
2023-01-21T23:33:42.036Z,169.83
2023-01-21T23:36:11.371Z,161.40
2023-01-21T23:38:38.304Z,149.53
2023-01-21T23:41:07.192Z,135.40
2023-01-21T23:43:34.153Z,132.27
2023-01-21T23:46:00.978Z,123.00
2023-01-21T23:48:27.801Z,125.47
2023-01-21T23:50:54.629Z,102.47
2023-01-21T23:53:21.544Z,97.13
2023-01-21T23:55:48.384Z,96.07
2023-01-21T23:58:15.181Z,92.90
